Time;durP1;ratioP1;P1;durP2;ratioP2;P2;SDS_P1;SDS_P2;PMS_P1;PMS_P2;Temp;Humidity;BMP_temperature;BMP_pressure;BME280_temperature;BME280_humidity;BME280_pressure;Samples;Min_cycle;Max_cycle;Signal;HPM_P1;HPM_P2
2023/11/22 00:01:15;;;;;;;6.20;3.60;;;;;;;-128.00;-1.00;-1.00;105416;1253;1004261;-78
2023/11/22 00:03:41;;;;;;;9.20;6.40;;;;;;;-128.00;-1.00;-1.00;105392;1254;1006000;-78
2023/11/22 00:06:08;;;;;;;5.40;3.80;;;;;;;-128.00;-1.00;-1.00;105431;1254;1004645;-78
2023/11/22 00:08:35;;;;;;;6.80;4.30;;;;;;;-128.00;-1.00;-1.00;105377;1253;1004026;-79
2023/11/22 00:11:01;;;;;;;8.60;4.30;;;;;;;-128.00;-1.00;-1.00;105368;1254;1004609;-78
2023/11/22 00:13:29;;;;;;;5.60;3.70;;;;;;;-128.00;-1.00;-1.00;105468;1253;1004985;-78
2023/11/22 00:15:56;;;;;;;5.50;3.50;;;;;;;-128.00;-1.00;-1.00;105160;1253;1005090;-78
2023/11/22 00:18:24;;;;;;;4.70;3.20;;;;;;;-128.00;-1.00;-1.00;105430;1253;1004133;-78
2023/11/22 00:20:50;;;;;;;5.00;3.10;;;;;;;-128.00;-1.00;-1.00;105420;1254;1004084;-78
2023/11/22 00:23:17;;;;;;;8.50;3.10;;;;;;;-128.00;-1.00;-1.00;105415;1254;1004218;-78
2023/11/22 00:25:43;;;;;;;6.90;4.30;;;;;;;-128.00;-1.00;-1.00;105422;1254;1004276;-78
2023/11/22 00:28:11;;;;;;;6.10;3.70;;;;;;;-128.00;-1.00;-1.00;105386;1254;1004290;-78
2023/11/22 00:30:38;;;;;;;7.30;4.00;;;;;;;-128.00;-1.00;-1.00;105373;1253;1003810;-78
2023/11/22 00:33:05;;;;;;;7.90;4.70;;;;;;;-128.00;-1.00;-1.00;105240;1254;1003445;-78
2023/11/22 00:35:31;;;;;;;7.10;3.90;;;;;;;-128.00;-1.00;-1.00;105346;1253;1004318;-78
2023/11/22 00:37:58;;;;;;;7.50;4.60;;;;;;;-128.00;-1.00;-1.00;105395;1253;1004144;-78
2023/11/22 00:40:24;;;;;;;7.80;5.50;;;;;;;-128.00;-1.00;-1.00;105433;1254;1003912;-78
2023/11/22 00:42:51;;;;;;;9.30;5.40;;;;;;;-128.00;-1.00;-1.00;105396;1254;1004180;-78
2023/11/22 00:45:18;;;;;;;8.50;5.10;;;;;;;-128.00;-1.00;-1.00;105419;1254;1004352;-78
2023/11/22 00:47:45;;;;;;;8.60;5.30;;;;;;;-128.00;-1.00;-1.00;105409;1253;1004086;-78
2023/11/22 00:50:11;;;;;;;9.60;6.50;;;;;;;-128.00;-1.00;-1.00;105366;1254;1003936;-78
2023/11/22 00:52:39;;;;;;;9.10;6.20;;;;;;;-128.00;-1.00;-1.00;105440;1253;1004505;-78
2023/11/22 00:55:05;;;;;;;8.60;5.40;;;;;;;-128.00;-1.00;-1.00;105405;1253;1003503;-78
2023/11/22 00:57:32;;;;;;;11.90;8.30;;;;;;;-128.00;-1.00;-1.00;105397;1254;1004667;-78
2023/11/22 00:59:58;;;;;;;10.20;6.00;;;;;;;-128.00;-1.00;-1.00;105372;1253;1005071;-78
2023/11/22 01:02:25;;;;;;;8.60;5.20;;;;;;;-128.00;-1.00;-1.00;105401;1254;1004116;-78
2023/11/22 01:04:51;;;;;;;7.80;4.30;;;;;;;-128.00;-1.00;-1.00;105360;1253;1004316;-78
2023/11/22 01:07:18;;;;;;;10.40;5.60;;;;;;;-128.00;-1.00;-1.00;105497;1253;1004603;-78
2023/11/22 01:09:44;;;;;;;10.90;5.60;;;;;;;-128.00;-1.00;-1.00;105407;1254;1004690;-78
2023/11/22 01:12:12;;;;;;;8.80;6.30;;;;;;;-128.00;-1.00;-1.00;105366;1252;1004113;-78
2023/11/22 01:14:39;;;;;;;8.30;5.40;;;;;;;-128.00;-1.00;-1.00;105332;1253;1004684;-78
2023/11/22 01:17:05;;;;;;;8.10;5.60;;;;;;;-128.00;-1.00;-1.00;105311;1254;1004573;-78
2023/11/22 01:19:32;;;;;;;13.70;9.50;;;;;;;-128.00;-1.00;-1.00;105322;1254;1004575;-78
2023/11/22 01:21:58;;;;;;;12.20;7.70;;;;;;;-128.00;-1.00;-1.00;105418;1253;1005114;-78
2023/11/22 01:24:27;;;;;;;12.40;8.20;;;;;;;-128.00;-1.00;-1.00;105418;1253;1005035;-78
2023/11/22 01:26:55;;;;;;;28.50;10.90;;;;;;;-128.00;-1.00;-1.00;105472;1254;1046219;-78
2023/11/22 01:29:22;;;;;;;13.30;8.60;;;;;;;-128.00;-1.00;-1.00;105445;1252;1006205;-78
2023/11/22 01:31:49;;;;;;;15.60;9.50;;;;;;;-128.00;-1.00;-1.00;105429;1253;1004425;-78
2023/11/22 01:34:16;;;;;;;13.60;7.90;;;;;;;-128.00;-1.00;-1.00;105444;1253;1004598;-78
2023/11/22 01:36:43;;;;;;;17.90;9.20;;;;;;;-128.00;-1.00;-1.00;105415;1253;1004752;-78
2023/11/22 01:39:12;;;;;;;14.90;9.40;;;;;;;-128.00;-1.00;-1.00;105398;1253;1004550;-78
2023/11/22 01:41:39;;;;;;;17.00;9.30;;;;;;;-128.00;-1.00;-1.00;105441;1253;1047657;-78
2023/11/22 01:44:05;;;;;;;17.70;10.90;;;;;;;-128.00;-1.00;-1.00;105424;1253;1003616;-78
2023/11/22 01:46:33;;;;;;;16.90;9.60;;;;;;;-128.00;-1.00;-1.00;105417;1253;1004097;-78
2023/11/22 01:49:00;;;;;;;17.00;10.30;;;;;;;-128.00;-1.00;-1.00;105393;1253;1005019;-78
2023/11/22 01:51:26;;;;;;;27.10;13.60;;;;;;;-128.00;-1.00;-1.00;105406;1253;1004228;-78
2023/11/22 01:53:54;;;;;;;21.90;11.70;;;;;;;-128.00;-1.00;-1.00;105397;1253;1003539;-78
2023/11/22 01:56:22;;;;;;;23.90;11.70;;;;;;;-128.00;-1.00;-1.00;105282;1254;1005067;-78
2023/11/22 01:58:49;;;;;;;18.10;10.70;;;;;;;-128.00;-1.00;-1.00;105388;1253;1005105;-78
2023/11/22 02:01:15;;;;;;;17.20;10.20;;;;;;;-128.00;-1.00;-1.00;105362;1253;1004195;-79
2023/11/22 02:03:42;;;;;;;18.20;10.50;;;;;;;-128.00;-1.00;-1.00;105388;1252;1005844;-78
2023/11/22 02:06:11;;;;;;;19.60;10.60;;;;;;;-128.00;-1.00;-1.00;105369;1254;1004503;-78
2023/11/22 02:08:38;;;;;;;19.30;10.90;;;;;;;-128.00;-1.00;-1.00;105401;1253;1063333;-78
2023/11/22 02:11:05;;;;;;;16.60;11.20;;;;;;;-128.00;-1.00;-1.00;105426;1254;1003986;-78
2023/11/22 02:13:32;;;;;;;20.60;11.10;;;;;;;-128.00;-1.00;-1.00;105407;1252;1003569;-78
2023/11/22 02:16:01;;;;;;;24.70;11.70;;;;;;;-128.00;-1.00;-1.00;105297;1254;1005140;-78
2023/11/22 02:18:27;;;;;;;17.00;10.10;;;;;;;-128.00;-1.00;-1.00;105374;1252;1046967;-78
2023/11/22 02:20:54;;;;;;;18.80;10.40;;;;;;;-128.00;-1.00;-1.00;105288;1253;1004171;-78
2023/11/22 02:23:21;;;;;;;17.20;10.70;;;;;;;-128.00;-1.00;-1.00;105302;1253;1004449;-78
2023/11/22 02:25:48;;;;;;;18.10;11.30;;;;;;;-128.00;-1.00;-1.00;105436;1253;1004394;-78
2023/11/22 02:28:16;;;;;;;23.00;11.20;;;;;;;-128.00;-1.00;-1.00;105468;1254;1004252;-78
2023/11/22 02:30:42;;;;;;;16.60;10.00;;;;;;;-128.00;-1.00;-1.00;105481;1252;1004431;-79
2023/11/22 02:33:09;;;;;;;19.40;10.40;;;;;;;-128.00;-1.00;-1.00;105429;1253;1004500;-80
2023/11/22 02:35:35;;;;;;;19.20;11.60;;;;;;;-128.00;-1.00;-1.00;105349;1254;1004214;-81
2023/11/22 02:38:02;;;;;;;21.80;12.60;;;;;;;-128.00;-1.00;-1.00;105375;1252;1003404;-79
2023/11/22 02:40:28;;;;;;;21.60;13.20;;;;;;;-128.00;-1.00;-1.00;105443;1253;1004080;-79
2023/11/22 02:42:57;;;;;;;20.80;12.40;;;;;;;-128.00;-1.00;-1.00;105423;1253;1004349;-79
2023/11/22 02:45:28;;;;;;;23.40;12.30;;;;;;;-128.00;-1.00;-1.00;105411;1252;1061563;-79
2023/11/22 02:47:54;;;;;;;21.60;12.30;;;;;;;-128.00;-1.00;-1.00;105435;1253;1058589;-79
2023/11/22 02:50:21;;;;;;;20.20;11.80;;;;;;;-128.00;-1.00;-1.00;105371;1253;1004175;-79
2023/11/22 02:52:47;;;;;;;21.20;11.80;;;;;;;-128.00;-1.00;-1.00;105399;1253;1003492;-79
2023/11/22 02:55:14;;;;;;;16.70;10.30;;;;;;;-128.00;-1.00;-1.00;105313;1253;1004089;-79
2023/11/22 02:57:41;;;;;;;19.80;11.20;;;;;;;-128.00;-1.00;-1.00;105393;1253;1004412;-79
2023/11/22 03:00:08;;;;;;;21.80;11.60;;;;;;;-128.00;-1.00;-1.00;105380;1253;1004477;-79
2023/11/22 03:02:35;;;;;;;20.00;12.00;;;;;;;-128.00;-1.00;-1.00;105456;1253;1005326;-79
2023/11/22 03:05:01;;;;;;;19.30;10.60;;;;;;;-128.00;-1.00;-1.00;105362;1252;1005162;-79
2023/11/22 03:07:28;;;;;;;19.10;12.60;;;;;;;-128.00;-1.00;-1.00;105354;1253;1004075;-79
2023/11/22 03:09:55;;;;;;;18.90;11.00;;;;;;;-128.00;-1.00;-1.00;105334;1252;1003860;-79
2023/11/22 03:12:23;;;;;;;17.10;10.40;;;;;;;-128.00;-1.00;-1.00;105452;1252;1004404;-79
2023/11/22 03:14:49;;;;;;;18.90;11.40;;;;;;;-128.00;-1.00;-1.00;105368;1253;1004125;-79
2023/11/22 03:17:16;;;;;;;26.70;13.20;;;;;;;-128.00;-1.00;-1.00;105413;1252;1004427;-79
2023/11/22 03:19:44;;;;;;;20.70;12.30;;;;;;;-128.00;-1.00;-1.00;105440;1254;1003663;-79
2023/11/22 03:22:10;;;;;;;23.40;14.20;;;;;;;-128.00;-1.00;-1.00;105459;1253;1003605;-79
2023/11/22 03:24:38;;;;;;;22.60;14.70;;;;;;;-128.00;-1.00;-1.00;105411;1252;1003500;-79
2023/11/22 03:27:05;;;;;;;21.40;12.70;;;;;;;-128.00;-1.00;-1.00;105394;1253;1004689;-79
2023/11/22 03:29:32;;;;;;;22.40;13.40;;;;;;;-128.00;-1.00;-1.00;105387;1252;1004498;-79
2023/11/22 03:31:58;;;;;;;21.40;13.80;;;;;;;-128.00;-1.00;-1.00;105400;1253;1005168;-79
2023/11/22 03:34:25;;;;;;;21.20;12.90;;;;;;;-128.00;-1.00;-1.00;105495;1252;1004270;-79
2023/11/22 03:36:52;;;;;;;22.30;13.10;;;;;;;-128.00;-1.00;-1.00;105448;1252;1004256;-79
2023/11/22 03:39:19;;;;;;;24.50;14.60;;;;;;;-128.00;-1.00;-1.00;105419;1253;1004700;-79
2023/11/22 03:41:46;;;;;;;22.70;12.60;;;;;;;-128.00;-1.00;-1.00;105387;1253;1004656;-79
2023/11/22 03:44:13;;;;;;;37.50;18.00;;;;;;;-128.00;-1.00;-1.00;105433;1252;1004549;-80
2023/11/22 03:46:40;;;;;;;19.70;11.50;;;;;;;-128.00;-1.00;-1.00;105411;1252;1004819;-79
2023/11/22 03:49:06;;;;;;;21.50;12.10;;;;;;;-128.00;-1.00;-1.00;105385;1253;1003512;-79
2023/11/22 03:51:33;;;;;;;19.00;11.10;;;;;;;-128.00;-1.00;-1.00;105405;1253;1004804;-79
2023/11/22 03:54:00;;;;;;;22.70;12.50;;;;;;;-128.00;-1.00;-1.00;105381;1253;1004153;-79
2023/11/22 03:56:27;;;;;;;20.70;10.90;;;;;;;-128.00;-1.00;-1.00;105430;1253;1005066;-79
2023/11/22 03:58:54;;;;;;;17.80;11.00;;;;;;;-128.00;-1.00;-1.00;105436;1252;1004155;-79
2023/11/22 04:01:21;;;;;;;20.80;13.40;;;;;;;-128.00;-1.00;-1.00;105488;1252;1003787;-79
2023/11/22 04:03:48;;;;;;;22.80;12.70;;;;;;;-128.00;-1.00;-1.00;105406;1253;1004538;-79
2023/11/22 04:06:16;;;;;;;21.30;13.20;;;;;;;-128.00;-1.00;-1.00;105324;1253;1003840;-79
2023/11/22 04:08:46;;;;;;;23.70;13.00;;;;;;;-128.00;-1.00;-1.00;105401;1253;1004245;-79
2023/11/22 04:11:13;;;;;;;19.90;12.60;;;;;;;-128.00;-1.00;-1.00;105360;1253;1062512;-79
2023/11/22 04:13:39;;;;;;;19.20;12.60;;;;;;;-128.00;-1.00;-1.00;105414;1252;1004766;-79
2023/11/22 04:16:08;;;;;;;25.00;13.50;;;;;;;-128.00;-1.00;-1.00;105377;1252;1004434;-80
2023/11/22 04:18:37;;;;;;;25.70;14.90;;;;;;;-128.00;-1.00;-1.00;105445;1252;1047375;-80
2023/11/22 04:21:07;;;;;;;21.60;13.70;;;;;;;-128.00;-1.00;-1.00;105474;1252;1046829;-79
2023/11/22 04:23:33;;;;;;;18.70;12.10;;;;;;;-128.00;-1.00;-1.00;105436;1253;1063174;-80
2023/11/22 04:26:00;;;;;;;20.70;12.00;;;;;;;-128.00;-1.00;-1.00;105433;1252;1006220;-79
2023/11/22 04:28:27;;;;;;;18.50;12.50;;;;;;;-128.00;-1.00;-1.00;105333;1253;1003836;-79
2023/11/22 04:30:54;;;;;;;20.70;12.90;;;;;;;-128.00;-1.00;-1.00;105490;1252;1004395;-79
2023/11/22 04:33:20;;;;;;;23.10;13.70;;;;;;;-128.00;-1.00;-1.00;105449;1252;1004386;-79
2023/11/22 04:35:50;;;;;;;27.90;14.50;;;;;;;-128.00;-1.00;-1.00;105385;1253;1004546;-79
2023/11/22 04:38:17;;;;;;;23.10;14.10;;;;;;;-128.00;-1.00;-1.00;105313;1253;1057188;-79
2023/11/22 04:40:44;;;;;;;22.70;14.00;;;;;;;-128.00;-1.00;-1.00;105363;1253;1004016;-79
2023/11/22 04:43:11;;;;;;;24.40;12.60;;;;;;;-128.00;-1.00;-1.00;105455;1252;1005834;-79
2023/11/22 04:45:37;;;;;;;21.90;12.70;;;;;;;-128.00;-1.00;-1.00;105403;1252;1005771;-80
2023/11/22 04:48:04;;;;;;;21.90;12.70;;;;;;;-128.00;-1.00;-1.00;105337;1253;1005225;-79
2023/11/22 04:50:31;;;;;;;28.20;14.00;;;;;;;-128.00;-1.00;-1.00;105226;1253;1004884;-79
2023/11/22 04:52:57;;;;;;;26.00;15.80;;;;;;;-128.00;-1.00;-1.00;105425;1252;1004536;-79
2023/11/22 04:55:24;;;;;;;23.30;13.70;;;;;;;-128.00;-1.00;-1.00;105442;1253;1004123;-79
2023/11/22 04:57:52;;;;;;;24.50;14.40;;;;;;;-128.00;-1.00;-1.00;105398;1253;1004083;-79
2023/11/22 05:00:19;;;;;;;23.30;14.50;;;;;;;-128.00;-1.00;-1.00;105328;1253;1004946;-79
2023/11/22 05:02:46;;;;;;;29.40;16.10;;;;;;;-128.00;-1.00;-1.00;105382;1253;1004195;-79
2023/11/22 05:05:12;;;;;;;27.70;14.00;;;;;;;-128.00;-1.00;-1.00;105361;1252;1005129;-79
2023/11/22 05:07:39;;;;;;;23.00;14.00;;;;;;;-128.00;-1.00;-1.00;105451;1252;1004082;-79
2023/11/22 05:10:09;;;;;;;27.40;15.50;;;;;;;-128.00;-1.00;-1.00;105270;1253;1005288;-79
2023/11/22 05:12:35;;;;;;;25.10;15.10;;;;;;;-128.00;-1.00;-1.00;105456;1252;1062171;-79
2023/11/22 05:15:02;;;;;;;26.60;16.70;;;;;;;-128.00;-1.00;-1.00;105447;1252;1004688;-79
2023/11/22 05:17:29;;;;;;;27.50;16.60;;;;;;;-128.00;-1.00;-1.00;105424;1252;1004595;-79
2023/11/22 05:19:56;;;;;;;35.00;13.60;;;;;;;-128.00;-1.00;-1.00;105437;1252;1004433;-79
2023/11/22 05:22:22;;;;;;;28.10;15.00;;;;;;;-128.00;-1.00;-1.00;105489;1252;1004944;-79
2023/11/22 05:24:49;;;;;;;23.70;14.70;;;;;;;-128.00;-1.00;-1.00;105484;1252;1004150;-79
2023/11/22 05:27:16;;;;;;;29.80;16.40;;;;;;;-128.00;-1.00;-1.00;105372;1252;1004168;-79
2023/11/22 05:29:43;;;;;;;21.90;13.60;;;;;;;-128.00;-1.00;-1.00;105431;1252;1004901;-79
2023/11/22 05:32:11;;;;;;;29.60;16.40;;;;;;;-128.00;-1.00;-1.00;105394;1252;1004596;-79
2023/11/22 05:34:40;;;;;;;30.40;16.90;;;;;;;-128.00;-1.00;-1.00;105443;1252;1004601;-79
2023/11/22 05:37:07;;;;;;;30.00;15.20;;;;;;;-128.00;-1.00;-1.00;105516;1252;1061140;-79
2023/11/22 05:39:33;;;;;;;31.90;17.20;;;;;;;-128.00;-1.00;-1.00;105319;1253;1004313;-79
2023/11/22 05:42:00;;;;;;;39.60;19.60;;;;;;;-128.00;-1.00;-1.00;105362;1253;1003297;-79
2023/11/22 05:44:27;;;;;;;37.70;19.00;;;;;;;-128.00;-1.00;-1.00;105422;1252;1003797;-79
2023/11/22 05:46:54;;;;;;;32.00;17.30;;;;;;;-128.00;-1.00;-1.00;105433;1252;1005298;-79
2023/11/22 05:49:21;;;;;;;35.10;17.60;;;;;;;-128.00;-1.00;-1.00;105456;1252;1003888;-79
2023/11/22 05:51:47;;;;;;;35.80;20.20;;;;;;;-128.00;-1.00;-1.00;105393;1253;1004227;-79
2023/11/22 05:54:16;;;;;;;32.90;18.60;;;;;;;-128.00;-1.00;-1.00;105346;1253;1004170;-79
2023/11/22 05:56:43;;;;;;;36.50;18.80;;;;;;;-128.00;-1.00;-1.00;105416;1252;1046006;-79
2023/11/22 05:59:10;;;;;;;35.60;18.40;;;;;;;-128.00;-1.00;-1.00;105372;1252;1004337;-79
2023/11/22 06:01:37;;;;;;;27.00;15.60;;;;;;;-128.00;-1.00;-1.00;105499;1252;1003584;-79
2023/11/22 06:04:04;;;;;;;36.50;17.20;;;;;;;-128.00;-1.00;-1.00;105429;1252;1005005;-79
2023/11/22 06:06:30;;;;;;;28.40;14.60;;;;;;;-128.00;-1.00;-1.00;105439;1252;1004797;-79
2023/11/22 06:08:57;;;;;;;28.30;16.10;;;;;;;-128.00;-1.00;-1.00;105227;1253;1004185;-80
2023/11/22 06:11:25;;;;;;;27.50;16.30;;;;;;;-128.00;-1.00;-1.00;105290;1252;1003886;-79
2023/11/22 06:13:51;;;;;;;26.40;14.50;;;;;;;-128.00;-1.00;-1.00;105295;1252;1004450;-79
2023/11/22 06:16:18;;;;;;;26.40;16.20;;;;;;;-128.00;-1.00;-1.00;105334;1253;1003826;-78
2023/11/22 06:18:45;;;;;;;26.90;14.20;;;;;;;-128.00;-1.00;-1.00;105255;1253;1003797;-79
2023/11/22 06:21:11;;;;;;;24.10;13.40;;;;;;;-128.00;-1.00;-1.00;105289;1253;1006192;-78
2023/11/22 06:23:38;;;;;;;26.00;15.40;;;;;;;-128.00;-1.00;-1.00;105379;1252;1005092;-78
2023/11/22 06:26:06;;;;;;;29.10;14.30;;;;;;;-128.00;-1.00;-1.00;105258;1252;1004057;-78
2023/11/22 06:28:33;;;;;;;28.30;13.70;;;;;;;-128.00;-1.00;-1.00;105507;1251;1003759;-78
2023/11/22 06:30:59;;;;;;;26.80;14.10;;;;;;;-128.00;-1.00;-1.00;105475;1253;1006266;-78
2023/11/22 06:33:26;;;;;;;28.20;17.20;;;;;;;-128.00;-1.00;-1.00;105327;1252;1004309;-79
2023/11/22 06:35:53;;;;;;;33.60;17.50;;;;;;;-128.00;-1.00;-1.00;105480;1252;1005912;-78
2023/11/22 06:38:19;;;;;;;30.20;17.40;;;;;;;-128.00;-1.00;-1.00;105433;1252;1005059;-78
2023/11/22 06:40:46;;;;;;;33.00;18.50;;;;;;;-128.00;-1.00;-1.00;105429;1252;1003315;-78
2023/11/22 06:43:12;;;;;;;34.50;17.60;;;;;;;-128.00;-1.00;-1.00;105540;1252;1005051;-78
2023/11/22 06:45:39;;;;;;;31.30;16.60;;;;;;;-128.00;-1.00;-1.00;105346;1252;1003731;-78
2023/11/22 06:48:05;;;;;;;37.90;19.80;;;;;;;-128.00;-1.00;-1.00;105389;1252;1004137;-78
2023/11/22 06:50:32;;;;;;;32.70;20.20;;;;;;;-128.00;-1.00;-1.00;105461;1252;1003435;-78
2023/11/22 06:52:58;;;;;;;35.40;18.90;;;;;;;-128.00;-1.00;-1.00;105423;1252;1004181;-78
2023/11/22 06:55:27;;;;;;;36.80;19.90;;;;;;;-128.00;-1.00;-1.00;105417;1252;1004246;-78
2023/11/22 06:57:53;;;;;;;38.20;19.10;;;;;;;-128.00;-1.00;-1.00;105232;1252;1004343;-78
2023/11/22 07:00:20;;;;;;;36.40;19.90;;;;;;;-128.00;-1.00;-1.00;105373;1252;1004390;-78
2023/11/22 07:02:47;;;;;;;38.20;20.00;;;;;;;-128.00;-1.00;-1.00;105446;1252;1004794;-78
2023/11/22 07:05:14;;;;;;;33.60;17.10;;;;;;;-128.00;-1.00;-1.00;105322;1252;1004616;-77
2023/11/22 07:07:40;;;;;;;33.00;18.40;;;;;;;-128.00;-1.00;-1.00;105342;1253;1004684;-78
2023/11/22 07:10:08;;;;;;;31.00;15.30;;;;;;;-128.00;-1.00;-1.00;105395;1252;1004767;-78
2023/11/22 07:12:34;;;;;;;24.70;13.40;;;;;;;-128.00;-1.00;-1.00;105365;1252;1004595;-78
2023/11/22 07:15:02;;;;;;;27.50;14.30;;;;;;;-128.00;-1.00;-1.00;105297;1253;1004235;-78
2023/11/22 07:17:29;;;;;;;27.90;14.20;;;;;;;-128.00;-1.00;-1.00;105428;1251;1004825;-78
2023/11/22 07:19:55;;;;;;;23.20;13.80;;;;;;;-128.00;-1.00;-1.00;105364;1252;1004551;-78
2023/11/22 07:22:23;;;;;;;27.30;15.00;;;;;;;-128.00;-1.00;-1.00;105410;1252;1004220;-77
2023/11/22 07:24:51;;;;;;;24.30;13.10;;;;;;;-128.00;-1.00;-1.00;105296;1253;1005015;-78
2023/11/22 07:27:18;;;;;;;29.10;15.60;;;;;;;-128.00;-1.00;-1.00;105321;1252;1004201;-78
2023/11/22 07:29:45;;;;;;;24.30;14.30;;;;;;;-128.00;-1.00;-1.00;105337;1253;1004321;-78
2023/11/22 07:32:12;;;;;;;23.40;13.30;;;;;;;-128.00;-1.00;-1.00;105361;1253;1004123;-78
2023/11/22 07:34:40;;;;;;;29.50;16.50;;;;;;;-128.00;-1.00;-1.00;105307;1251;1004035;-78
2023/11/22 07:37:07;;;;;;;31.40;17.50;;;;;;;-128.00;-1.00;-1.00;105268;1252;1004371;-78
2023/11/22 07:39:35;;;;;;;40.80;21.80;;;;;;;-128.00;-1.00;-1.00;105397;1252;1004061;-78
2023/11/22 07:42:02;;;;;;;37.00;18.80;;;;;;;-128.00;-1.00;-1.00;105256;1253;1005840;-78
2023/11/22 07:44:32;;;;;;;37.30;19.70;;;;;;;-128.00;-1.00;-1.00;105370;1252;1003841;-78
2023/11/22 07:47:00;;;;;;;50.30;27.10;;;;;;;-128.00;-1.00;-1.00;105310;1253;1044523;-78
2023/11/22 07:49:26;;;;;;;73.20;35.40;;;;;;;-128.00;-1.00;-1.00;105112;1253;1004873;-78
2023/11/22 07:51:53;;;;;;;57.30;31.00;;;;;;;-128.00;-1.00;-1.00;105403;1251;1003633;-78
2023/11/22 07:54:22;;;;;;;40.40;22.90;;;;;;;-128.00;-1.00;-1.00;105326;1252;1005019;-78
2023/11/22 07:56:49;;;;;;;28.20;16.70;;;;;;;-128.00;-1.00;-1.00;105259;1255;1058744;-78
2023/11/22 07:59:16;;;;;;;31.10;16.50;;;;;;;-128.00;-1.00;-1.00;105287;1252;1004351;-78
2023/11/22 08:01:47;;;;;;;103.10;37.00;;;;;;;-128.00;-1.00;-1.00;105348;1251;1004252;-78
2023/11/22 08:04:15;;;;;;;49.30;24.20;;;;;;;-128.00;-1.00;-1.00;105305;1253;1061987;-78
2023/11/22 08:06:42;;;;;;;402.90;151.60;;;;;;;-128.00;-1.00;-1.00;105343;1252;1003942;-78
2023/11/22 08:09:09;;;;;;;365.90;137.00;;;;;;;-128.00;-1.00;-1.00;105314;1251;1004177;-78
2023/11/22 08:11:36;;;;;;;433.60;175.10;;;;;;;-128.00;-1.00;-1.00;105419;1252;1004488;-78
2023/11/22 08:14:03;;;;;;;96.40;44.40;;;;;;;-128.00;-1.00;-1.00;105256;1253;1004240;-78
2023/11/22 08:16:30;;;;;;;42.90;22.10;;;;;;;-128.00;-1.00;-1.00;105373;1252;1003643;-78
2023/11/22 08:18:56;;;;;;;199.70;68.40;;;;;;;-128.00;-1.00;-1.00;105235;1253;1004114;-78
2023/11/22 08:21:23;;;;;;;496.80;190.70;;;;;;;-128.00;-1.00;-1.00;105249;1253;1004288;-78
2023/11/22 08:23:50;;;;;;;85.90;45.60;;;;;;;-128.00;-1.00;-1.00;105403;1251;1003819;-79
2023/11/22 08:26:16;;;;;;;91.90;39.30;;;;;;;-128.00;-1.00;-1.00;105413;1252;1004435;-78
2023/11/22 08:28:43;;;;;;;32.40;16.60;;;;;;;-128.00;-1.00;-1.00;105357;1252;1004950;-78
2023/11/22 08:31:10;;;;;;;85.80;37.60;;;;;;;-128.00;-1.00;-1.00;105353;1251;1004242;-78
2023/11/22 08:33:37;;;;;;;162.60;58.10;;;;;;;-128.00;-1.00;-1.00;105580;1251;1004765;-78
2023/11/22 08:36:05;;;;;;;98.20;46.60;;;;;;;-128.00;-1.00;-1.00;105388;1252;1004080;-78
2023/11/22 08:38:34;;;;;;;41.70;19.90;;;;;;;-128.00;-1.00;-1.00;105378;1253;1046876;-78
2023/11/22 08:41:02;;;;;;;;;;;;;;;-128.00;-1.00;-1.00;105554;1252;1062236;-78
2023/11/22 08:43:29;;;;;;;26.70;16.20;;;;;;;-128.00;-1.00;-1.00;105506;1253;1003918;-78
2023/11/22 08:45:55;;;;;;;68.00;34.20;;;;;;;-128.00;-1.00;-1.00;105423;1251;1004996;-78
2023/11/22 08:48:22;;;;;;;37.60;23.20;;;;;;;-128.00;-1.00;-1.00;105330;1252;1005364;-78
2023/11/22 08:50:48;;;;;;;26.70;16.80;;;;;;;-128.00;-1.00;-1.00;105311;1253;1004846;-78
2023/11/22 08:53:18;;;;;;;25.00;14.50;;;;;;;-128.00;-1.00;-1.00;105377;1253;1004314;-78
2023/11/22 08:55:45;;;;;;;25.00;12.80;;;;;;;-128.00;-1.00;-1.00;105385;1252;1057406;-78
2023/11/22 08:58:12;;;;;;;23.10;13.30;;;;;;;-128.00;-1.00;-1.00;105356;1252;1004564;-78
2023/11/22 09:00:38;;;;;;;19.80;12.10;;;;;;;-128.00;-1.00;-1.00;105330;1253;1004521;-78
2023/11/22 09:03:05;;;;;;;26.40;15.10;;;;;;;-128.00;-1.00;-1.00;105430;1252;1004016;-78
2023/11/22 09:05:32;;;;;;;29.10;18.20;;;;;;;-128.00;-1.00;-1.00;105364;1252;1004559;-79
2023/11/22 09:08:01;;;;;;;30.70;17.00;;;;;;;-128.00;-1.00;-1.00;105268;1252;1005282;-78
2023/11/22 09:10:27;;;;;;;52.30;25.60;;;;;;;-128.00;-1.00;-1.00;105441;1251;1059853;-78
2023/11/22 09:12:54;;;;;;;70.40;32.90;;;;;;;-128.00;-1.00;-1.00;105451;1251;1004357;-78
2023/11/22 09:15:26;;;;;;;39.70;18.70;;;;;;;-128.00;-1.00;-1.00;105462;1253;1004354;-78
2023/11/22 09:17:53;;;;;;;38.30;20.10;;;;;;;-128.00;-1.00;-1.00;105298;1253;1061574;-78
2023/11/22 09:20:20;;;;;;;62.30;32.10;;;;;;;-128.00;-1.00;-1.00;105342;1255;1004324;-78
2023/11/22 09:22:48;;;;;;;52.50;26.50;;;;;;;-128.00;-1.00;-1.00;105315;1253;1003765;-78
2023/11/22 09:25:21;;;;;;;40.10;21.40;;;;;;;-128.00;-1.00;-1.00;105354;1255;1003893;-78
2023/11/22 09:27:51;;;;;;;34.60;17.60;;;;;;;-128.00;-1.00;-1.00;105347;1254;1047294;-78
2023/11/22 09:33:09;;;;;;;72.20;38.20;;;;;;;-128.00;-1.00;-1.00;105239;1253;1057341;-78
2023/11/22 09:35:36;;;;;;;51.50;28.00;;;;;;;-128.00;-1.00;-1.00;105286;1254;1005265;-79
2023/11/22 09:38:04;;;;;;;51.80;27.50;;;;;;;-128.00;-1.00;-1.00;105417;1254;1004985;-78
2023/11/22 09:40:33;;;;;;;46.10;26.40;;;;;;;-128.00;-1.00;-1.00;105345;1253;1046346;-78
2023/11/22 09:43:02;;;;;;;41.00;21.80;;;;;;;-128.00;-1.00;-1.00;105353;1253;1061177;-78
2023/11/22 09:45:32;;;;;;;42.70;22.60;;;;;;;-128.00;-1.00;-1.00;105369;1255;1005063;-78
2023/11/22 09:47:59;;;;;;;36.60;19.70;;;;;;;-128.00;-1.00;-1.00;105178;1253;1058750;-78
2023/11/22 09:50:29;;;;;;;36.70;18.80;;;;;;;-128.00;-1.00;-1.00;105314;1253;1004979;-78
2023/11/22 09:53:00;;;;;;;36.90;18.80;;;;;;;-128.00;-1.00;-1.00;105417;1253;1046880;-78
2023/11/22 09:55:28;;;;;;;40.60;19.20;;;;;;;-128.00;-1.00;-1.00;105409;1252;1062337;-78
2023/11/22 09:57:55;;;;;;;44.50;20.80;;;;;;;-128.00;-1.00;-1.00;105257;1252;1005427;-78
2023/11/22 10:00:22;;;;;;;35.30;18.60;;;;;;;-128.00;-1.00;-1.00;105227;1253;1004306;-78
2023/11/22 10:02:48;;;;;;;57.40;29.40;;;;;;;-128.00;-1.00;-1.00;105303;1253;1003689;-78
2023/11/22 10:05:15;;;;;;;43.50;21.40;;;;;;;-128.00;-1.00;-1.00;105361;1251;1004585;-78
2023/11/22 10:07:42;;;;;;;41.40;21.60;;;;;;;-128.00;-1.00;-1.00;105329;1253;1005228;-78
2023/11/22 10:10:10;;;;;;;91.00;43.40;;;;;;;-128.00;-1.00;-1.00;105334;1253;1003777;-78
2023/11/22 10:12:40;;;;;;;80.20;34.30;;;;;;;-128.00;-1.00;-1.00;105283;1253;1058785;-78
2023/11/22 10:15:13;;;;;;;88.50;41.90;;;;;;;-128.00;-1.00;-1.00;105287;1251;1044900;-77
2023/11/22 10:17:40;;;;;;;53.40;26.10;;;;;;;-128.00;-1.00;-1.00;105399;1253;1046791;-78
2023/11/22 10:20:11;;;;;;;125.70;60.30;;;;;;;-128.00;-1.00;-1.00;105227;1253;1004441;-78
2023/11/22 10:22:44;;;;;;;72.10;40.70;;;;;;;-128.00;-1.00;-1.00;105340;1252;1059298;-78
2023/11/22 10:25:12;;;;;;;47.90;26.70;;;;;;;-128.00;-1.00;-1.00;105434;1252;1058787;-78
2023/11/22 10:27:40;;;;;;;39.00;19.70;;;;;;;-128.00;-1.00;-1.00;105341;1253;1003687;-78
2023/11/22 10:30:09;;;;;;;33.10;17.10;;;;;;;-128.00;-1.00;-1.00;105360;1252;1003827;-78
2023/11/22 10:32:39;;;;;;;28.60;14.50;;;;;;;-128.00;-1.00;-1.00;105169;1253;1061910;-78
2023/11/22 10:35:06;;;;;;;25.40;14.80;;;;;;;-128.00;-1.00;-1.00;105269;1253;1058376;-78
2023/11/22 10:37:33;;;;;;;30.70;17.00;;;;;;;-128.00;-1.00;-1.00;105259;1254;1004204;-78
2023/11/22 10:40:00;;;;;;;34.00;17.40;;;;;;;-128.00;-1.00;-1.00;105285;1253;1004330;-78
2023/11/22 10:42:27;;;;;;;29.70;15.00;;;;;;;-128.00;-1.00;-1.00;105305;1252;1004112;-79
2023/11/22 10:44:58;;;;;;;28.10;15.80;;;;;;;-128.00;-1.00;-1.00;105348;1253;1004097;-78
2023/11/22 10:47:26;;;;;;;29.80;15.50;;;;;;;-128.00;-1.00;-1.00;105348;1252;1058408;-78
2023/11/22 10:49:52;;;;;;;29.90;13.90;;;;;;;-128.00;-1.00;-1.00;105275;1253;1003504;-78
2023/11/22 10:52:20;;;;;;;33.40;17.60;;;;;;;-128.00;-1.00;-1.00;105304;1253;1004062;-78
2023/11/22 10:54:50;;;;;;;25.30;12.90;;;;;;;-128.00;-1.00;-1.00;105288;1253;1004287;-78
2023/11/22 10:57:19;;;;;;;25.80;13.10;;;;;;;-128.00;-1.00;-1.00;105278;1253;1061201;-78
2023/11/22 10:59:50;;;;;;;29.60;14.80;;;;;;;-128.00;-1.00;-1.00;105284;1253;1058258;-78
2023/11/22 11:02:17;;;;;;;24.20;13.10;;;;;;;-128.00;-1.00;-1.00;105300;1254;1060805;-78
2023/11/22 11:04:47;;;;;;;26.30;12.80;;;;;;;-128.00;-1.00;-1.00;105187;1254;1004134;-78
2023/11/22 11:07:15;;;;;;;28.80;12.40;;;;;;;-128.00;-1.00;-1.00;105264;1251;1046855;-78